sensor_id;sensor_type;location;lat;lon;timestamp;pressure;altitude;pressure_sealevel;temperature;humidity
19526;BME280;9907;42.676;26.348;2023-07-24T00:02:08;99020.38;;;23.01;100.00
19526;BME280;9907;42.676;26.348;2023-07-24T00:04:33;99025.81;;;23.01;100.00
19526;BME280;9907;42.676;26.348;2023-07-24T00:07:00;99029.84;;;22.92;100.00
19526;BME280;9907;42.676;26.348;2023-07-24T00:09:25;99016.63;;;22.95;100.00
19526;BME280;9907;42.676;26.348;2023-07-24T00:11:51;99027.16;;;22.85;100.00
19526;BME280;9907;42.676;26.348;2023-07-24T00:14:16;99022.75;;;22.84;100.00
19526;BME280;9907;42.676;26.348;2023-07-24T00:16:42;99026.72;;;22.88;100.00
19526;BME280;9907;42.676;26.348;2023-07-24T00:19:07;99027.13;;;22.92;100.00
19526;BME280;9907;42.676;26.348;2023-07-24T00:21:33;99024.59;;;22.97;100.00
19526;BME280;9907;42.676;26.348;2023-07-24T00:23:58;99026.06;;;22.93;100.00
19526;BME280;9907;42.676;26.348;2023-07-24T00:26:24;99026.28;;;22.91;100.00
19526;BME280;9907;42.676;26.348;2023-07-24T00:28:49;99025.22;;;22.92;100.00
19526;BME280;9907;42.676;26.348;2023-07-24T00:31:15;99023.78;;;22.90;100.00
19526;BME280;9907;42.676;26.348;2023-07-24T00:33:40;99016.28;;;22.78;100.00
19526;BME280;9907;42.676;26.348;2023-07-24T00:36:06;99011.94;;;22.64;100.00
19526;BME280;9907;42.676;26.348;2023-07-24T00:38:31;99015.69;;;22.70;100.00
19526;BME280;9907;42.676;26.348;2023-07-24T00:40:57;99014.25;;;22.54;100.00
19526;BME280;9907;42.676;26.348;2023-07-24T00:43:23;99010.09;;;22.45;100.00
19526;BME280;9907;42.676;26.348;2023-07-24T00:45:48;98999.63;;;22.49;100.00
19526;BME280;9907;42.676;26.348;2023-07-24T00:48:14;99003.38;;;22.48;100.00
19526;BME280;9907;42.676;26.348;2023-07-24T00:50:42;99006.13;;;22.41;100.00
19526;BME280;9907;42.676;26.348;2023-07-24T00:53:08;98998.84;;;22.35;100.00
19526;BME280;9907;42.676;26.348;2023-07-24T00:55:34;99001.81;;;22.20;100.00
19526;BME280;9907;42.676;26.348;2023-07-24T00:58:00;99005.59;;;22.13;100.00
19526;BME280;9907;42.676;26.348;2023-07-24T01:00:27;99005.59;;;22.13;100.00
19526;BME280;9907;42.676;26.348;2023-07-24T01:02:53;99003.06;;;22.11;100.00
19526;BME280;9907;42.676;26.348;2023-07-24T01:05:19;99006.00;;;22.16;100.00
19526;BME280;9907;42.676;26.348;2023-07-24T01:07:46;99000.31;;;22.18;100.00
19526;BME280;9907;42.676;26.348;2023-07-24T01:10:11;99007.00;;;22.28;100.00
19526;BME280;9907;42.676;26.348;2023-07-24T01:12:59;99000.13;;;22.19;100.00
19526;BME280;9907;42.676;26.348;2023-07-24T01:18:01;99010.41;;;22.04;100.00
19526;BME280;9907;42.676;26.348;2023-07-24T01:20:29;99002.44;;;22.09;100.00
19526;BME280;9907;42.676;26.348;2023-07-24T01:23:09;99003.28;;;22.16;100.00
19526;BME280;9907;42.676;26.348;2023-07-24T01:25:54;99003.44;;;22.21;100.00
19526;BME280;9907;42.676;26.348;2023-07-24T01:28:19;98999.25;;;22.32;100.00
19526;BME280;9907;42.676;26.348;2023-07-24T01:30:45;99004.72;;;22.19;100.00
19526;BME280;9907;42.676;26.348;2023-07-24T01:33:11;99007.25;;;22.20;100.00
19526;BME280;9907;42.676;26.348;2023-07-24T01:35:38;98999.72;;;22.16;100.00
19526;BME280;9907;42.676;26.348;2023-07-24T01:38:03;99010.81;;;22.08;100.00
19526;BME280;9907;42.676;26.348;2023-07-24T01:40:30;99007.69;;;21.98;100.00
19526;BME280;9907;42.676;26.348;2023-07-24T01:42:56;99001.63;;;21.96;100.00
19526;BME280;9907;42.676;26.348;2023-07-24T01:45:24;99011.84;;;21.87;100.00
19526;BME280;9907;42.676;26.348;2023-07-24T01:47:50;99004.56;;;21.94;100.00
19526;BME280;9907;42.676;26.348;2023-07-24T01:50:15;99002.88;;;21.93;100.00
19526;BME280;9907;42.676;26.348;2023-07-24T01:52:41;98999.31;;;21.99;100.00
19526;BME280;9907;42.676;26.348;2023-07-24T01:55:06;99003.94;;;21.99;100.00
19526;BME280;9907;42.676;26.348;2023-07-24T01:57:32;98999.31;;;21.99;100.00
19526;BME280;9907;42.676;26.348;2023-07-24T01:59:57;99005.59;;;22.00;100.00
19526;BME280;9907;42.676;26.348;2023-07-24T02:02:23;99001.38;;;21.84;100.00
19526;BME280;9907;42.676;26.348;2023-07-24T02:04:48;99006.63;;;21.79;100.00
19526;BME280;9907;42.676;26.348;2023-07-24T02:07:14;99005.97;;;21.77;100.00
19526;BME280;9907;42.676;26.348;2023-07-24T02:09:39;99005.97;;;21.77;100.00
19526;BME280;9907;42.676;26.348;2023-07-24T02:12:05;99010.78;;;21.62;100.00
19526;BME280;9907;42.676;26.348;2023-07-24T02:14:31;99008.91;;;21.62;100.00
19526;BME280;9907;42.676;26.348;2023-07-24T02:16:56;99012.50;;;21.76;100.00
19526;BME280;9907;42.676;26.348;2023-07-24T02:19:22;99006.81;;;21.84;100.00
19526;BME280;9907;42.676;26.348;2023-07-24T02:21:47;99014.78;;;21.92;100.00
19526;BME280;9907;42.676;26.348;2023-07-24T02:24:13;99003.28;;;21.90;100.00
19526;BME280;9907;42.676;26.348;2023-07-24T02:26:38;99009.75;;;21.63;100.00
19526;BME280;9907;42.676;26.348;2023-07-24T02:29:04;99010.59;;;21.70;100.00
19526;BME280;9907;42.676;26.348;2023-07-24T02:31:29;99010.41;;;21.65;100.00
19526;BME280;9907;42.676;26.348;2023-07-24T02:33:55;99019.38;;;21.72;100.00
19526;BME280;9907;42.676;26.348;2023-07-24T02:36:20;99015.84;;;21.65;100.00
19526;BME280;9907;42.676;26.348;2023-07-24T02:38:45;99007.47;;;21.60;100.00
19526;BME280;9907;42.676;26.348;2023-07-24T02:41:11;99025.41;;;21.41;100.00
19526;BME280;9907;42.676;26.348;2023-07-24T02:43:36;99019.13;;;21.34;100.00
19526;BME280;9907;42.676;26.348;2023-07-24T02:46:02;99026.88;;;21.44;100.00
19526;BME280;9907;42.676;26.348;2023-07-24T02:48:28;99020.22;;;21.59;100.00
19526;BME280;9907;42.676;26.348;2023-07-24T02:50:53;99021.88;;;21.60;100.00
19526;BME280;9907;42.676;26.348;2023-07-24T02:53:19;99021.66;;;21.62;100.00
19526;BME280;9907;42.676;26.348;2023-07-24T02:55:44;99021.03;;;21.66;100.00
19526;BME280;9907;42.676;26.348;2023-07-24T02:58:13;99023.34;;;21.63;100.00
19526;BME280;9907;42.676;26.348;2023-07-24T03:00:39;99022.72;;;21.54;100.00
19526;BME280;9907;42.676;26.348;2023-07-24T03:03:05;99017.28;;;21.54;100.00
19526;BME280;9907;42.676;26.348;2023-07-24T03:05:33;99020.81;;;21.48;100.00
19526;BME280;9907;42.676;26.348;2023-07-24T03:07:59;99024.81;;;21.46;100.00
19526;BME280;9907;42.676;26.348;2023-07-24T03:10:25;99021.88;;;21.47;100.00
19526;BME280;9907;42.676;26.348;2023-07-24T03:12:50;99011.88;;;21.54;100.00
19526;BME280;9907;42.676;26.348;2023-07-24T03:15:16;99020.63;;;21.63;100.00
19526;BME280;9907;42.676;26.348;2023-07-24T03:17:41;99011.44;;;21.70;100.00
19526;BME280;9907;42.676;26.348;2023-07-24T03:20:16;99017.28;;;21.74;100.00
19526;BME280;9907;42.676;26.348;2023-07-24T03:22:42;99019.56;;;21.77;100.00
19526;BME280;9907;42.676;26.348;2023-07-24T03:25:08;99020.63;;;21.82;100.00
19526;BME280;9907;42.676;26.348;2023-07-24T03:27:34;99015.41;;;21.81;100.00
19526;BME280;9907;42.676;26.348;2023-07-24T03:29:59;99010.59;;;21.90;100.00
19526;BME280;9907;42.676;26.348;2023-07-24T03:32:25;99014.16;;;21.70;100.00
19526;BME280;9907;42.676;26.348;2023-07-24T03:34:50;99018.97;;;21.75;100.00
19526;BME280;9907;42.676;26.348;2023-07-24T03:37:16;99024.19;;;21.83;100.00
19526;BME280;9907;42.676;26.348;2023-07-24T03:39:41;99021.06;;;21.86;100.00
19526;BME280;9907;42.676;26.348;2023-07-24T03:42:10;99013.31;;;21.83;100.00
19526;BME280;9907;42.676;26.348;2023-07-24T03:44:39;99025.00;;;21.77;100.00
19526;BME280;9907;42.676;26.348;2023-07-24T03:47:05;99026.09;;;21.76;100.00
19526;BME280;9907;42.676;26.348;2023-07-24T03:49:30;99021.69;;;21.75;100.00
19526;BME280;9907;42.676;26.348;2023-07-24T03:51:56;99026.06;;;21.69;100.00
19526;BME280;9907;42.676;26.348;2023-07-24T03:54:21;99025.00;;;21.77;100.00
19526;BME280;9907;42.676;26.348;2023-07-24T03:56:47;99032.38;;;21.76;100.00
19526;BME280;9907;42.676;26.348;2023-07-24T03:59:12;99023.97;;;21.84;100.00
19526;BME280;9907;42.676;26.348;2023-07-24T04:01:38;99032.34;;;21.90;100.00
19526;BME280;9907;42.676;26.348;2023-07-24T04:04:03;99026.06;;;21.89;100.00
19526;BME280;9907;42.676;26.348;2023-07-24T04:06:29;99034.66;;;21.99;100.00
19526;BME280;9907;42.676;26.348;2023-07-24T04:08:54;99036.97;;;22.02;100.00
19526;BME280;9907;42.676;26.348;2023-07-24T04:11:20;99032.97;;;22.11;100.00
19526;BME280;9907;42.676;26.348;2023-07-24T04:13:45;99031.50;;;22.15;100.00
19526;BME280;9907;42.676;26.348;2023-07-24T04:16:10;99028.59;;;22.10;100.00
19526;BME280;9907;42.676;26.348;2023-07-24T04:18:36;99026.91;;;22.16;100.00
19526;BME280;9907;42.676;26.348;2023-07-24T04:21:01;99031.50;;;22.22;100.00
19526;BME280;9907;42.676;26.348;2023-07-24T04:23:27;99035.28;;;22.14;100.00
19526;BME280;9907;42.676;26.348;2023-07-24T04:25:52;99036.97;;;22.15;100.00
19526;BME280;9907;42.676;26.348;2023-07-24T04:28:18;99033.19;;;22.16;100.00
19526;BME280;9907;42.676;26.348;2023-07-24T04:30:43;99029.19;;;22.25;100.00
19526;BME280;9907;42.676;26.348;2023-07-24T04:33:08;99033.81;;;22.31;100.00
19526;BME280;9907;42.676;26.348;2023-07-24T04:35:34;99023.97;;;22.30;100.00
19526;BME280;9907;42.676;26.348;2023-07-24T04:37:59;99029.81;;;22.34;100.00
19526;BME280;9907;42.676;26.348;2023-07-24T04:40:25;99028.50;;;22.43;100.00
19526;BME280;9907;42.676;26.348;2023-07-24T04:42:50;99036.69;;;22.50;100.00
19526;BME280;9907;42.676;26.348;2023-07-24T04:45:16;99042.09;;;22.56;100.00
19526;BME280;9907;42.676;26.348;2023-07-24T04:47:41;99027.41;;;22.64;100.00
19526;BME280;9907;42.676;26.348;2023-07-24T04:50:07;99029.72;;;22.67;100.00
19526;BME280;9907;42.676;26.348;2023-07-24T04:52:33;99035.59;;;22.64;100.00
19526;BME280;9907;42.676;26.348;2023-07-24T04:54:58;99038.50;;;22.69;100.00
19526;BME280;9907;42.676;26.348;2023-07-24T04:57:23;99025.97;;;22.68;100.00
19526;BME280;9907;42.676;26.348;2023-07-24T04:59:49;99031.19;;;22.76;100.00
19526;BME280;9907;42.676;26.348;2023-07-24T05:02:14;99031.59;;;22.73;100.00
19526;BME280;9907;42.676;26.348;2023-07-24T05:04:40;99044.81;;;22.76;100.00
19526;BME280;9907;42.676;26.348;2023-07-24T05:07:06;99044.56;;;22.77;100.00
19526;BME280;9907;42.676;26.348;2023-07-24T05:09:32;99040.16;;;22.83;100.00
19526;BME280;9907;42.676;26.348;2023-07-24T05:11:57;99046.84;;;22.80;100.00
19526;BME280;9907;42.676;26.348;2023-07-24T05:14:23;99048.50;;;22.88;100.00
19526;BME280;9907;42.676;26.348;2023-07-24T05:16:48;99049.38;;;22.82;100.00
19526;BME280;9907;42.676;26.348;2023-07-24T05:19:14;99044.94;;;22.94;100.00
19526;BME280;9907;42.676;26.348;2023-07-24T05:21:39;99059.34;;;23.01;100.00
19526;BME280;9907;42.676;26.348;2023-07-24T05:24:04;99058.56;;;22.94;100.00
19526;BME280;9907;42.676;26.348;2023-07-24T05:26:30;99052.03;;;22.95;100.00
19526;BME280;9907;42.676;26.348;2023-07-24T05:28:55;99048.41;;;23.08;100.00
19526;BME280;9907;42.676;26.348;2023-07-24T05:31:21;99051.94;;;23.15;100.00
19526;BME280;9907;42.676;26.348;2023-07-24T05:33:46;99052.59;;;23.10;100.00
19526;BME280;9907;42.676;26.348;2023-07-24T05:36:12;99053.81;;;23.14;100.00
19526;BME280;9907;42.676;26.348;2023-07-24T05:38:37;99056.31;;;23.22;100.00
19526;BME280;9907;42.676;26.348;2023-07-24T05:41:03;99058.53;;;23.32;100.00
19526;BME280;9907;42.676;26.348;2023-07-24T05:43:30;99057.94;;;23.30;100.00
19526;BME280;9907;42.676;26.348;2023-07-24T05:45:56;99051.47;;;23.62;100.00
19526;BME280;9907;42.676;26.348;2023-07-24T05:48:22;99051.66;;;23.92;100.00
19526;BME280;9907;42.676;26.348;2023-07-24T05:50:48;99050.66;;;23.87;100.00
19526;BME280;9907;42.676;26.348;2023-07-24T05:53:15;99043.84;;;23.96;100.00
19526;BME280;9907;42.676;26.348;2023-07-24T05:55:40;99057.06;;;23.99;100.00
19526;BME280;9907;42.676;26.348;2023-07-24T05:58:08;99054.38;;;24.42;100.00
19526;BME280;9907;42.676;26.348;2023-07-24T06:00:33;99055.22;;;24.79;96.57
19526;BME280;9907;42.676;26.348;2023-07-24T06:02:59;99053.16;;;25.10;94.56
19526;BME280;9907;42.676;26.348;2023-07-24T06:05:24;99058.78;;;25.45;90.75
19526;BME280;9907;42.676;26.348;2023-07-24T06:07:50;99049.72;;;25.63;88.30
19526;BME280;9907;42.676;26.348;2023-07-24T06:10:15;99043.44;;;25.74;86.23
19526;BME280;9907;42.676;26.348;2023-07-24T06:12:41;99042.81;;;25.60;86.69
19526;BME280;9907;42.676;26.348;2023-07-24T06:15:06;99039.25;;;25.60;87.97
19526;BME280;9907;42.676;26.348;2023-07-24T06:17:32;99044.75;;;25.83;86.29
19526;BME280;9907;42.676;26.348;2023-07-24T06:19:58;99043.03;;;26.12;85.98
19526;BME280;9907;42.676;26.348;2023-07-24T06:22:24;99038.41;;;26.36;82.46
19526;BME280;9907;42.676;26.348;2023-07-24T06:24:49;99045.41;;;26.55;81.33
19526;BME280;9907;42.676;26.348;2023-07-24T06:27:15;99034.81;;;26.58;79.77
19526;BME280;9907;42.676;26.348;2023-07-24T06:29:41;99022.84;;;26.76;78.57
19526;BME280;9907;42.676;26.348;2023-07-24T06:32:07;99034.53;;;26.83;77.52
19526;BME280;9907;42.676;26.348;2023-07-24T06:34:33;99032.69;;;27.12;74.70
19526;BME280;9907;42.676;26.348;2023-07-24T06:36:58;99037.66;;;27.43;73.83
19526;BME280;9907;42.676;26.348;2023-07-24T06:39:23;99034.66;;;27.56;73.19
19526;BME280;9907;42.676;26.348;2023-07-24T06:41:51;99034.91;;;27.55;71.83
19526;BME280;9907;42.676;26.348;2023-07-24T06:44:17;99040.00;;;27.63;71.55
19526;BME280;9907;42.676;26.348;2023-07-24T06:46:42;99036.63;;;27.61;69.31
19526;BME280;9907;42.676;26.348;2023-07-24T06:49:08;99040.28;;;27.50;69.32
19526;BME280;9907;42.676;26.348;2023-07-24T06:51:34;99029.59;;;27.65;69.80
19526;BME280;9907;42.676;26.348;2023-07-24T06:53:59;99023.13;;;28.04;67.58
19526;BME280;9907;42.676;26.348;2023-07-24T06:56:24;99024.19;;;28.20;66.78
19526;BME280;9907;42.676;26.348;2023-07-24T06:58:50;99021.88;;;27.79;67.77
19526;BME280;9907;42.676;26.348;2023-07-24T07:01:15;99019.03;;;28.07;68.04
19526;BME280;9907;42.676;26.348;2023-07-24T07:03:41;99011.91;;;28.23;65.67
19526;BME280;9907;42.676;26.348;2023-07-24T07:06:06;99016.28;;;28.24;65.14
19526;BME280;9907;42.676;26.348;2023-07-24T07:08:32;99016.00;;;28.42;65.07
19526;BME280;9907;42.676;26.348;2023-07-24T07:10:58;99007.66;;;28.53;64.26
19526;BME280;9907;42.676;26.348;2023-07-24T07:13:24;99006.09;;;28.19;65.40
19526;BME280;9907;42.676;26.348;2023-07-24T07:15:50;99004.22;;;28.63;63.96
19526;BME280;9907;42.676;26.348;2023-07-24T07:18:16;99000.53;;;28.52;62.99
19526;BME280;9907;42.676;26.348;2023-07-24T07:20:45;99000.66;;;28.63;61.86
19526;BME280;9907;42.676;26.348;2023-07-24T07:23:11;99005.63;;;29.09;62.86
19526;BME280;9907;42.676;26.348;2023-07-24T07:25:37;99004.25;;;29.07;60.57
19526;BME280;9907;42.676;26.348;2023-07-24T07:28:03;99001.75;;;29.05;60.05
19526;BME280;9907;42.676;26.348;2023-07-24T07:30:28;99006.47;;;29.31;60.59
19526;BME280;9907;42.676;26.348;2023-07-24T07:32:54;99002.38;;;29.12;59.68
19526;BME280;9907;42.676;26.348;2023-07-24T07:35:19;99001.25;;;29.30;59.67
19526;BME280;9907;42.676;26.348;2023-07-24T07:37:44;98992.94;;;29.57;59.27
19526;BME280;9907;42.676;26.348;2023-07-24T07:40:10;98995.91;;;29.45;59.34
19526;BME280;9907;42.676;26.348;2023-07-24T07:42:36;98996.34;;;29.37;59.44
19526;BME280;9907;42.676;26.348;2023-07-24T07:45:01;98979.84;;;29.64;59.38
19526;BME280;9907;42.676;26.348;2023-07-24T07:47:27;98979.97;;;29.84;59.87
19526;BME280;9907;42.676;26.348;2023-07-24T07:49:52;98986.28;;;29.79;60.08
19526;BME280;9907;42.676;26.348;2023-07-24T07:52:17;98990.66;;;30.07;59.24
19526;BME280;9907;42.676;26.348;2023-07-24T07:54:47;98984.31;;;30.07;57.65
19526;BME280;9907;42.676;26.348;2023-07-24T07:57:12;98982.56;;;30.32;56.46
19526;BME280;9907;42.676;26.348;2023-07-24T07:59:38;98975.13;;;30.38;56.47
19526;BME280;9907;42.676;26.348;2023-07-24T08:02:03;98980.53;;;30.18;56.43
19526;BME280;9907;42.676;26.348;2023-07-24T08:04:29;98972.56;;;30.21;56.45
19526;BME280;9907;42.676;26.348;2023-07-24T08:06:54;98972.53;;;30.16;55.59
19526;BME280;9907;42.676;26.348;2023-07-24T08:09:20;98964.31;;;30.21;55.06
19526;BME280;9907;42.676;26.348;2023-07-24T08:11:47;98976.88;;;30.49;56.24
19526;BME280;9907;42.676;26.348;2023-07-24T08:14:12;98966.03;;;30.84;55.62
19526;BME280;9907;42.676;26.348;2023-07-24T08:16:38;98973.22;;;30.90;53.85
19526;BME280;9907;42.676;26.348;2023-07-24T08:19:04;98963.34;;;31.00;53.76
19526;BME280;9907;42.676;26.348;2023-07-24T08:21:29;98971.31;;;30.96;53.72
19526;BME280;9907;42.676;26.348;2023-07-24T08:23:55;98967.69;;;30.90;53.53
19526;BME280;9907;42.676;26.348;2023-07-24T08:26:22;98979.09;;;30.47;53.08
19526;BME280;9907;42.676;26.348;2023-07-24T08:28:49;98968.75;;;30.74;53.48
19526;BME280;9907;42.676;26.348;2023-07-24T08:31:15;98966.38;;;31.08;52.74
19526;BME280;9907;42.676;26.348;2023-07-24T08:33:40;98967.25;;;31.24;52.00
19526;BME280;9907;42.676;26.348;2023-07-24T08:36:07;98968.13;;;31.45;52.14
19526;BME280;9907;42.676;26.348;2023-07-24T08:38:34;98966.47;;;31.44;53.07
19526;BME280;9907;42.676;26.348;2023-07-24T08:41:10;98959.63;;;31.61;51.39
19526;BME280;9907;42.676;26.348;2023-07-24T08:43:38;98954.09;;;31.61;51.03
19526;BME280;9907;42.676;26.348;2023-07-24T08:46:04;98948.56;;;31.66;51.69
19526;BME280;9907;42.676;26.348;2023-07-24T08:48:32;98952.97;;;31.72;50.49
19526;BME280;9907;42.676;26.348;2023-07-24T08:51:19;98952.97;;;32.13;50.27
19526;BME280;9907;42.676;26.348;2023-07-24T08:53:47;98947.72;;;31.86;50.31
19526;BME280;9907;42.676;26.348;2023-07-24T08:56:13;98954.09;;;31.71;49.94
19526;BME280;9907;42.676;26.348;2023-07-24T08:58:40;98945.19;;;31.14;49.92
19526;BME280;9907;42.676;26.348;2023-07-24T09:01:06;98950.69;;;31.09;49.58
19526;BME280;9907;42.676;26.348;2023-07-24T09:03:32;98951.00;;;31.27;49.98
19526;BME280;9907;42.676;26.348;2023-07-24T09:05:58;98942.50;;;31.54;49.70
19526;BME280;9907;42.676;26.348;2023-07-24T09:08:55;98945.53;;;31.58;49.04
19526;BME280;9907;42.676;26.348;2023-07-24T09:11:21;98940.00;;;31.53;49.17
19526;BME280;9907;42.676;26.348;2023-07-24T09:13:46;98941.94;;;31.62;49.79
19526;BME280;9907;42.676;26.348;2023-07-24T09:16:23;98943.31;;;31.60;49.36
19526;BME280;9907;42.676;26.348;2023-07-24T09:18:49;98939.44;;;31.61;48.50
19526;BME280;9907;42.676;26.348;2023-07-24T09:21:31;98938.91;;;31.89;47.96
19526;BME280;9907;42.676;26.348;2023-07-24T09:23:57;98930.03;;;32.22;49.96
19526;BME280;9907;42.676;26.348;2023-07-24T09:26:23;98923.94;;;32.15;48.15
19526;BME280;9907;42.676;26.348;2023-07-24T09:28:54;98925.25;;;32.48;46.60
19526;BME280;9907;42.676;26.348;2023-07-24T09:31:20;98920.31;;;32.30;48.20
19526;BME280;9907;42.676;26.348;2023-07-24T09:33:46;98914.31;;;31.93;48.62
19526;BME280;9907;42.676;26.348;2023-07-24T09:36:12;98920.38;;;31.74;47.89
19526;BME280;9907;42.676;26.348;2023-07-24T09:38:38;98915.44;;;31.56;47.09
19526;BME280;9907;42.676;26.348;2023-07-24T09:41:04;98914.84;;;31.90;48.42
19526;BME280;9907;42.676;26.348;2023-07-24T09:43:31;98908.22;;;31.35;46.79
19526;BME280;9907;42.676;26.348;2023-07-24T09:45:57;98912.94;;;31.65;45.84
19526;BME280;9907;42.676;26.348;2023-07-24T09:48:26;98906.63;;;31.59;45.72
19526;BME280;9907;42.676;26.348;2023-07-24T09:50:57;98904.97;;;31.58;46.13
19526;BME280;9907;42.676;26.348;2023-07-24T09:53:43;98909.31;;;31.49;46.77
19526;BME280;9907;42.676;26.348;2023-07-24T09:56:10;98903.81;;;31.39;45.61
19526;BME280;9907;42.676;26.348;2023-07-24T09:58:37;98892.78;;;31.29;45.82
19526;BME280;9907;42.676;26.348;2023-07-24T10:01:05;98892.78;;;31.44;45.23
19526;BME280;9907;42.676;26.348;2023-07-24T10:03:55;98883.06;;;31.01;47.22
19526;BME280;9907;42.676;26.348;2023-07-24T10:06:20;98880.56;;;30.84;47.59
19526;BME280;9907;42.676;26.348;2023-07-24T10:08:47;98873.91;;;30.80;47.98
19526;BME280;9907;42.676;26.348;2023-07-24T10:11:13;98873.72;;;31.07;47.68
19526;BME280;9907;42.676;26.348;2023-07-24T10:13:42;98869.63;;;31.30;47.32
19526;BME280;9907;42.676;26.348;2023-07-24T10:16:08;98869.84;;;31.08;45.58
19526;BME280;9907;42.676;26.348;2023-07-24T10:18:40;98870.13;;;31.27;46.56
19526;BME280;9907;42.676;26.348;2023-07-24T10:21:09;98864.91;;;31.41;47.23
19526;BME280;9907;42.676;26.348;2023-07-24T10:23:45;98851.91;;;31.16;46.21
19526;BME280;9907;42.676;26.348;2023-07-24T10:26:14;98845.84;;;31.34;46.68
19526;BME280;9907;42.676;26.348;2023-07-24T10:28:41;98842.84;;;31.35;47.37
19526;BME280;9907;42.676;26.348;2023-07-24T10:31:18;98843.66;;;31.66;47.68
19526;BME280;9907;42.676;26.348;2023-07-24T10:33:46;98836.47;;;31.05;47.15
19526;BME280;9907;42.676;26.348;2023-07-24T10:36:12;98831.53;;;31.32;47.61
19526;BME280;9907;42.676;26.348;2023-07-24T10:38:43;98839.22;;;31.50;47.35
19526;BME280;9907;42.676;26.348;2023-07-24T10:41:10;98825.44;;;31.40;46.72
19526;BME280;9907;42.676;26.348;2023-07-24T10:43:46;98824.63;;;31.24;48.17
19526;BME280;9907;42.676;26.348;2023-07-24T10:46:13;98826.53;;;31.39;48.90
19526;BME280;9907;42.676;26.348;2023-07-24T10:48:43;98825.72;;;31.23;47.70
19526;BME280;9907;42.676;26.348;2023-07-24T10:51:09;98820.75;;;31.35;48.10
19526;BME280;9907;42.676;26.348;2023-07-24T10:53:36;98810.25;;;31.43;47.46
19526;BME280;9907;42.676;26.348;2023-07-24T10:56:03;98818.53;;;31.48;47.33
19526;BME280;9907;42.676;26.348;2023-07-24T10:58:29;98812.47;;;31.51;47.71
19526;BME280;9907;42.676;26.348;2023-07-24T11:00:55;98807.78;;;31.56;47.32
19526;BME280;9907;42.676;26.348;2023-07-24T11:03:21;98805.03;;;31.36;47.15
19526;BME280;9907;42.676;26.348;2023-07-24T11:05:47;98801.44;;;31.41;47.71
19526;BME280;9907;42.676;26.348;2023-07-24T11:08:14;98801.44;;;31.30;46.98
19526;BME280;9907;42.676;26.348;2023-07-24T11:13:21;98796.75;;;31.01;47.93
19526;BME280;9907;42.676;26.348;2023-07-24T11:15:48;98789.31;;;31.21;47.22
19526;BME280;9907;42.676;26.348;2023-07-24T11:18:14;98790.41;;;31.30;47.65
19526;BME280;9907;42.676;26.348;2023-07-24T11:20:44;98792.88;;;31.42;47.59
19526;BME280;9907;42.676;26.348;2023-07-24T11:23:11;98781.56;;;31.38;46.93
19526;BME280;9907;42.676;26.348;2023-07-24T11:25:37;98779.91;;;31.58;46.46
19526;BME280;9907;42.676;26.348;2023-07-24T11:28:05;98774.13;;;31.39;47.09
19526;BME280;9907;42.676;26.348;2023-07-24T11:30:31;98768.84;;;31.37;46.78
19526;BME280;9907;42.676;26.348;2023-07-24T11:33:00;98775.22;;;31.43;46.77
19526;BME280;9907;42.676;26.348;2023-07-24T11:35:26;98773.03;;;31.25;46.23
19526;BME280;9907;42.676;26.348;2023-07-24T11:37:52;98760.88;;;31.31;46.78
19526;BME280;9907;42.676;26.348;2023-07-24T11:40:17;98768.31;;;31.35;46.53
19526;BME280;9907;42.676;26.348;2023-07-24T11:42:46;98759.22;;;31.40;45.67
19526;BME280;9907;42.676;26.348;2023-07-24T11:45:11;98760.31;;;31.54;45.41
19526;BME280;9907;42.676;26.348;2023-07-24T11:47:50;98764.16;;;31.43;44.96
19526;BME280;9907;42.676;26.348;2023-07-24T11:50:18;98763.59;;;31.51;45.52
19526;BME280;9907;42.676;26.348;2023-07-24T11:52:45;98748.97;;;31.46;45.94
19526;BME280;9907;42.676;26.348;2023-07-24T11:55:12;98751.22;;;31.44;44.64
19526;BME280;9907;42.676;26.348;2023-07-24T11:57:38;98739.34;;;31.53;45.57
19526;BME280;9907;42.676;26.348;2023-07-24T12:00:06;98734.06;;;31.57;44.74
19526;BME280;9907;42.676;26.348;2023-07-24T12:02:34;98736.00;;;31.61;43.71
19526;BME280;9907;42.676;26.348;2023-07-24T12:05:00;98727.19;;;31.39;43.55
19526;BME280;9907;42.676;26.348;2023-07-24T12:07:33;98725.53;;;31.43;44.25
19526;BME280;9907;42.676;26.348;2023-07-24T12:10:00;98724.44;;;31.54;43.91
19526;BME280;9907;42.676;26.348;2023-07-24T12:12:37;98723.88;;;31.62;44.02
19526;BME280;9907;42.676;26.348;2023-07-24T12:15:02;98716.09;;;31.64;43.99
19526;BME280;9907;42.676;26.348;2023-07-24T12:17:28;98713.34;;;31.69;44.55
19526;BME280;9907;42.676;26.348;2023-07-24T12:19:53;98717.19;;;31.73;44.83
19526;BME280;9907;42.676;26.348;2023-07-24T12:22:19;98719.13;;;31.73;44.65
19526;BME280;9907;42.676;26.348;2023-07-24T12:24:44;98716.16;;;31.59;44.64
19526;BME280;9907;42.676;26.348;2023-07-24T12:27:10;98709.22;;;31.62;44.09
19526;BME280;9907;42.676;26.348;2023-07-24T12:29:35;98708.97;;;31.58;45.12
19526;BME280;9907;42.676;26.348;2023-07-24T12:32:01;98709.53;;;31.55;44.69
19526;BME280;9907;42.676;26.348;2023-07-24T12:34:26;98712.25;;;31.50;44.58
19526;BME280;9907;42.676;26.348;2023-07-24T12:36:52;98706.47;;;31.52;43.22
19526;BME280;9907;42.676;26.348;2023-07-24T12:39:19;98706.53;;;31.36;44.75
19526;BME280;9907;42.676;26.348;2023-07-24T12:41:44;98700.16;;;31.36;43.57
19526;BME280;9907;42.676;26.348;2023-07-24T12:44:09;98701.00;;;31.36;44.23
19526;BME280;9907;42.676;26.348;2023-07-24T12:46:35;98701.00;;;31.31;44.00
19526;BME280;9907;42.676;26.348;2023-07-24T12:49:00;98697.16;;;31.27;43.50
19526;BME280;9907;42.676;26.348;2023-07-24T12:51:26;98691.06;;;31.35;44.08
19526;BME280;9907;42.676;26.348;2023-07-24T12:53:51;98695.19;;;31.48;43.90
19526;BME280;9907;42.676;26.348;2023-07-24T12:56:16;98686.31;;;31.51;43.86
19526;BME280;9907;42.676;26.348;2023-07-24T12:58:42;98693.25;;;31.44;43.80